Time;durP1;ratioP1;P1;durP2;ratioP2;P2;SDS_P1;SDS_P2;PMS_P1;PMS_P2;Temp;Humidity;BMP_temperature;BMP_pressure;BME280_temperature;BME280_humidity;BME280_pressure;Samples;Min_cycle;Max_cycle;Signal;HPM_P1;HPM_P2
2021/03/11 00:06:40;;;;;;;53.88;25.10;;;-1.70;99.90;;;;;;20894674;28;20443;-62
2021/03/11 00:16:42;;;;;;;47.75;23.50;;;-1.80;99.90;;;;;;20894547;28;20483;-62
2021/03/11 00:26:44;;;;;;;54.88;24.00;;;-1.90;99.90;;;;;;20895453;28;20110;-63
2021/03/11 00:36:46;;;;;;;57.63;24.73;;;-1.90;99.90;;;;;;20893297;28;20040;-62
2021/03/11 00:46:48;;;;;;;51.75;23.45;;;-2.10;99.90;;;;;;20858073;28;20090;-62
2021/03/11 00:56:50;;;;;;;55.42;25.58;;;-2.00;99.90;;;;;;20873926;28;20053;-62
2021/03/11 01:06:52;;;;;;;55.00;26.23;;;-2.00;99.90;;;;;;20856713;28;20114;-62
2021/03/11 01:16:54;;;;;;;57.55;25.02;;;-2.00;99.90;;;;;;20890016;28;20049;-62
2021/03/11 01:26:57;;;;;;;54.10;24.95;;;-2.00;99.90;;;;;;20890454;28;20086;-63
2021/03/11 01:36:59;;;;;;;50.45;25.05;;;-2.00;99.90;;;;;;20871287;28;20115;-62
2021/03/11 01:47:01;;;;;;;58.88;26.55;;;-1.90;99.90;;;;;;20887945;28;20549;-62
2021/03/11 01:57:04;;;;;;;54.08;24.38;;;-1.60;99.90;;;;;;20887927;28;20608;-62
2021/03/11 02:07:06;;;;;;;59.22;28.00;;;-1.60;99.90;;;;;;20886300;28;20056;-62
2021/03/11 02:17:09;;;;;;;60.47;29.45;;;-1.60;99.90;;;;;;20886984;28;20479;-62
2021/03/11 02:27:59;;;;;;;61.75;28.30;;;-1.30;99.90;;;;;;20886706;28;20442;-62
2021/03/11 02:38:01;;;;;;;58.53;29.33;;;-1.10;99.90;;;;;;20860003;28;20483;-63
2021/03/11 02:48:08;;;;;;;59.22;28.95;;;-0.90;99.90;;;;;;20885228;28;20041;-63
2021/03/11 02:58:12;;;;;;;50.78;26.60;;;-0.60;99.90;;;;;;20885432;28;20102;-63
2021/03/11 03:08:16;;;;;;;48.00;26.02;;;-0.40;99.90;;;;;;20884916;28;20052;-63
2021/03/11 03:18:19;;;;;;;52.47;26.08;;;-0.30;99.90;;;;;;20893081;28;20049;-63
2021/03/11 03:28:21;;;;;;;54.17;26.50;;;-0.40;99.90;;;;;;20899181;28;20041;-62
2021/03/11 03:38:23;;;;;;;52.35;24.55;;;-0.30;99.90;;;;;;20898291;28;20075;-62
2021/03/11 03:48:36;;;;;;;47.80;23.60;;;-0.20;99.90;;;;;;20896784;28;20041;-62
2021/03/11 03:58:39;;;;;;;49.60;23.67;;;0.00;99.90;;;;;;20896798;28;20075;-62
2021/03/11 04:08:45;;;;;;;48.47;22.55;;;0.10;99.90;;;;;;20895479;28;20056;-62
2021/03/11 04:18:51;;;;;;;46.90;21.83;;;0.00;99.90;;;;;;20894813;28;20045;-62
2021/03/11 04:28:54;;;;;;;40.83;20.30;;;0.00;99.90;;;;;;20893790;28;20037;-63
2021/03/11 04:38:56;;;;;;;45.97;21.58;;;0.00;99.90;;;;;;20894886;28;20099;-63
2021/03/11 04:49:02;;;;;;;40.85;19.60;;;-0.20;99.90;;;;;;20891768;28;20110;-62
2021/03/11 04:59:05;;;;;;;40.80;16.40;;;-0.50;99.90;;;;;;20892318;28;20099;-62
2021/03/11 05:09:07;;;;;;;41.13;19.75;;;-0.40;99.90;;;;;;20890623;28;20110;-63
2021/03/11 05:19:09;;;;;;;40.35;18.30;;;-0.30;99.90;;;;;;20890110;28;20041;-62
2021/03/11 05:29:11;;;;;;;42.45;18.70;;;-0.40;99.90;;;;;;20893385;28;20471;-63
2021/03/11 05:39:13;;;;;;;42.70;19.08;;;-0.30;99.90;;;;;;20889879;28;20041;-63
2021/03/11 05:49:16;;;;;;;37.45;16.50;;;-0.20;99.90;;;;;;20887393;28;20037;-62
2021/03/11 05:59:18;;;;;;;34.97;16.10;;;0.00;99.90;;;;;;20870620;28;20504;-63
2021/03/11 06:09:21;;;;;;;37.75;16.80;;;0.20;99.90;;;;;;20886617;28;20088;-63
2021/03/11 06:19:24;;;;;;;36.10;17.42;;;0.20;99.90;;;;;;20885971;28;20157;-62
2021/03/11 06:29:57;;;;;;;40.30;17.02;;;0.20;99.90;;;;;;20886070;28;20033;-63
2021/03/11 06:40:21;;;;;;;34.85;16.73;;;0.20;99.90;;;;;;20773929;28;20459;-63
2021/03/11 06:50:32;;;;;;;36.05;16.77;;;0.50;99.90;;;;;;20856466;28;20114;-62
2021/03/11 07:00:33;;;;;;;35.97;18.17;;;0.90;99.90;;;;;;20883218;28;20091;-63
2021/03/11 07:10:36;;;;;;;35.20;15.82;;;1.20;99.90;;;;;;20916762;28;20087;-64
2021/03/11 07:20:38;;;;;;;32.63;14.35;;;1.60;99.90;;;;;;20880987;28;20037;-64
2021/03/11 07:30:51;;;;;;;30.52;15.25;;;2.20;99.90;;;;;;20880530;28;20078;-65
2021/03/11 07:41:03;;;;;;;27.60;14.48;;;2.90;99.90;;;;;;20898763;28;20052;-65
2021/03/11 07:51:06;;;;;;;27.98;14.43;;;3.50;99.90;;;;;;20896356;28;20037;-65
2021/03/11 08:01:09;;;;;;;28.08;13.30;;;3.70;99.90;;;;;;20876329;28;20053;-64
2021/03/11 08:11:11;;;;;;;27.70;14.00;;;3.90;99.90;;;;;;20878816;28;20053;-64
2021/03/11 08:21:25;;;;;;;24.15;12.35;;;3.90;99.90;;;;;;20893752;28;20071;-65
2021/03/11 08:31:31;;;;;;;19.38;9.15;;;4.20;99.80;;;;;;20892749;28;20051;-65
2021/03/11 08:41:34;;;;;;;27.73;14.18;;;4.50;93.70;;;;;;20894022;28;20045;-65
2021/03/11 08:51:38;;;;;;;23.98;13.20;;;4.80;98.80;;;;;;20874745;28;20029;-66
2021/03/11 09:01:53;;;;;;;25.73;13.77;;;5.60;95.90;;;;;;20891396;28;20057;-65
2021/03/11 09:11:56;;;;;;;27.23;14.43;;;6.20;97.00;;;;;;20891154;28;20060;-65
2021/03/11 09:21:58;;;;;;;29.38;14.43;;;6.40;93.10;;;;;;20889996;28;20144;-65
2021/03/11 09:32:00;;;;;;;34.55;16.10;;;6.10;96.10;;;;;;20889180;28;20059;-65
2021/03/11 09:42:09;;;;;;;28.52;15.98;;;5.90;97.70;;;;;;20889248;28;20098;-66
2021/03/11 09:52:13;;;;;;;28.90;16.40;;;6.30;96.30;;;;;;20888094;28;20082;-65
2021/03/11 10:02:15;;;;;;;31.88;16.85;;;6.30;95.60;;;;;;20868653;28;20062;-66
2021/03/11 10:12:38;;;;;;;31.45;15.85;;;6.00;97.80;;;;;;20803929;28;20503;-66
2021/03/11 10:22:40;;;;;;;33.28;17.50;;;6.50;97.60;;;;;;20803008;28;20103;-66
2021/03/11 10:32:50;;;;;;;29.48;17.48;;;7.40;95.20;;;;;;20819263;28;20115;-65
2021/03/11 10:42:54;;;;;;;29.83;17.85;;;7.80;94.00;;;;;;20820388;28;20041;-65
2021/03/11 10:52:57;;;;;;;34.70;19.42;;;8.00;92.00;;;;;;20818196;28;20116;-66
2021/03/11 11:03:01;;;;;;;33.38;19.38;;;7.30;95.40;;;;;;20818007;28;20318;-65
2021/03/11 11:13:03;;;;;;;31.45;19.58;;;7.50;95.20;;;;;;20895313;28;20052;-65
2021/03/11 11:23:05;;;;;;;37.20;20.05;;;7.50;94.50;;;;;;20899178;28;20085;-65
2021/03/11 11:33:09;;;;;;;30.50;18.77;;;7.20;95.20;;;;;;20898781;28;20115;-66
2021/03/11 11:43:11;;;;;;;30.75;19.88;;;7.20;96.20;;;;;;20880253;28;20083;-66
2021/03/11 11:53:15;;;;;;;33.53;19.13;;;7.60;96.50;;;;;;20896386;28;20040;-65
2021/03/11 12:03:17;;;;;;;35.60;20.48;;;8.30;95.60;;;;;;21056278;22;20057;-65
2021/03/11 12:13:19;;;;;;;33.42;19.77;;;8.50;94.90;;;;;;20896220;28;20456;-66
2021/03/11 12:23:22;;;;;;;36.38;22.60;;;8.70;95.00;;;;;;20821200;28;20095;-66
2021/03/11 12:33:24;;;;;;;38.58;22.25;;;8.80;94.60;;;;;;20811431;28;20045;-65
2021/03/11 12:43:27;;;;;;;36.72;20.63;;;8.10;96.10;;;;;;20811658;28;20037;-65
2021/03/11 12:53:29;;;;;;;33.42;19.48;;;7.80;96.20;;;;;;20808643;28;20095;-64
2021/03/11 13:03:31;;;;;;;35.22;19.33;;;7.50;96.40;;;;;;20808171;28;20483;-64
2021/03/11 13:13:33;;;;;;;29.40;16.42;;;7.10;97.20;;;;;;20810399;28;20417;-64
2021/03/11 13:23:35;;;;;;;19.05;10.35;;;6.50;98.90;;;;;;20151182;28;10001216;-64
2021/03/11 13:33:39;;;;;;;25.58;13.77;;;6.50;98.70;;;;;;20890160;28;20122;-64
2021/03/11 13:43:41;;;;;;;26.35;16.67;;;6.50;99.30;;;;;;20872024;28;20044;-64
2021/03/11 13:53:43;;;;;;;34.78;20.02;;;6.50;99.90;;;;;;20887527;28;20551;-64
2021/03/11 14:03:46;;;;;;;37.22;21.55;;;6.50;99.90;;;;;;20852765;28;20041;-64
2021/03/11 14:13:48;;;;;;;28.75;16.40;;;6.30;99.90;;;;;;20887405;28;20102;-63
2021/03/11 14:23:50;;;;;;;13.35;6.38;;;5.80;99.90;;;;;;20885986;28;20394;-64
2021/03/11 14:33:52;;;;;;;12.85;6.32;;;5.80;99.90;;;;;;20867277;28;20042;-64
2021/03/11 14:43:54;;;;;;;8.63;5.13;;;5.80;99.90;;;;;;20868490;28;20479;-63
2021/03/11 14:53:55;;;;;;;9.48;5.53;;;6.00;99.90;;;;;;20883705;28;20107;-64
2021/03/11 15:03:57;;;;;;;10.13;5.82;;;5.80;99.90;;;;;;20884170;28;20495;-63
2021/03/11 15:14:01;;;;;;;13.02;5.10;;;5.80;99.90;;;;;;20893821;28;20067;-63
2021/03/11 15:24:04;;;;;;;8.95;4.47;;;5.70;99.90;;;;;;20894936;28;20475;-64
2021/03/11 15:34:06;;;;;;;7.85;4.15;;;5.80;99.90;;;;;;20897758;28;20051;-63
2021/03/11 15:44:09;;;;;;;8.88;4.70;;;6.10;99.90;;;;;;20898655;28;20372;-64
2021/03/11 15:54:11;;;;;;;10.52;6.32;;;6.10;99.90;;;;;;20879374;28;20037;-64
2021/03/11 16:04:14;;;;;;;12.32;6.80;;;5.90;99.90;;;;;;20895546;28;20510;-63
2021/03/11 16:14:17;;;;;;;12.18;6.03;;;5.60;99.90;;;;;;20878748;28;20048;-63
2021/03/11 16:24:19;;;;;;;14.70;6.88;;;5.50;99.90;;;;;;20892523;28;20071;-63
2021/03/11 16:34:21;;;;;;;13.30;6.50;;;5.30;99.90;;;;;;20876027;28;20040;-64
2021/03/11 16:44:24;;;;;;;11.65;6.20;;;5.30;99.90;;;;;;20876785;28;20313;-63
2021/03/11 16:54:26;;;;;;;14.32;7.65;;;5.30;99.90;;;;;;20891060;28;20048;-63
2021/03/11 17:04:27;;;;;;;21.20;10.32;;;4.90;99.90;;;;;;20872842;28;20094;-63
2021/03/11 17:14:29;;;;;;;29.25;14.70;;;4.60;99.90;;;;;;20904902;28;20041;-64
2021/03/11 17:24:31;;;;;;;21.75;12.30;;;4.30;99.90;;;;;;20890151;28;20033;-63
2021/03/11 17:34:34;;;;;;;27.58;14.88;;;3.90;99.90;;;;;;20891684;28;20094;-63
2021/03/11 17:44:37;;;;;;;38.80;16.23;;;3.70;99.90;;;;;;20888311;28;20037;-63
2021/03/11 17:54:39;;;;;;;35.08;18.35;;;3.50;99.90;;;;;;20888153;28;20041;-64
2021/03/11 18:04:41;;;;;;;31.05;16.67;;;3.40;99.90;;;;;;20869886;28;20078;-63
2021/03/11 18:14:43;;;;;;;13.95;8.05;;;3.30;99.90;;;;;;20868240;28;20088;-64
2021/03/11 18:24:45;;;;;;;14.13;6.13;;;3.60;99.90;;;;;;20886382;28;20033;-63
2021/03/11 18:34:48;;;;;;;9.88;5.07;;;4.10;99.90;;;;;;20885663;28;20067;-63
2021/03/11 18:44:50;;;;;;;21.88;11.90;;;4.30;99.90;;;;;;20887443;28;20037;-63
2021/03/11 18:54:53;;;;;;;9.25;5.13;;;4.30;99.90;;;;;;20902231;28;20041;-63
2021/03/11 19:04:55;;;;;;;5.25;2.90;;;4.30;99.90;;;;;;20883156;28;20425;-63
2021/03/11 19:14:57;;;;;;;22.20;13.25;;;4.40;99.90;;;;;;20899566;28;20029;-64
2021/03/11 19:24:59;;;;;;;19.40;10.95;;;4.10;99.90;;;;;;20900733;28;20144;-63
2021/03/11 19:35:03;;;;;;;13.20;6.38;;;3.90;99.90;;;;;;20880601;28;20048;-63
2021/03/11 19:45:07;;;;;;;15.45;7.70;;;4.00;99.90;;;;;;20898495;28;20082;-64
2021/03/11 19:55:15;;;;;;;14.38;7.70;;;3.90;99.90;;;;;;20879718;28;20053;-64
2021/03/11 20:05:18;;;;;;;13.75;8.02;;;3.80;99.90;;;;;;20879079;28;20088;-64
2021/03/11 20:15:23;;;;;;;16.83;8.50;;;3.80;99.90;;;;;;20895471;28;20552;-65
2021/03/11 20:25:29;;;;;;;10.50;5.30;;;3.60;99.90;;;;;;20896203;28;20110;-64
2021/03/11 20:35:32;;;;;;;13.00;7.75;;;3.80;99.90;;;;;;20874861;28;20040;-64
2021/03/11 20:45:34;;;;;;;9.73;5.90;;;3.80;99.90;;;;;;20874970;28;20099;-64
2021/03/11 20:55:37;;;;;;;7.07;3.20;;;4.10;99.90;;;;;;20892686;28;20041;-63
2021/03/11 21:05:39;;;;;;;8.43;4.00;;;4.30;99.90;;;;;;20873098;28;20063;-63
2021/03/11 21:15:41;;;;;;;9.10;3.53;;;4.30;99.90;;;;;;20872840;28;20230;-63
2021/03/11 21:25:43;;;;;;;6.28;3.00;;;4.10;99.90;;;;;;20856662;28;20033;-65
2021/03/11 21:35:46;;;;;;;4.47;2.30;;;4.10;99.90;;;;;;20888867;28;20037;-67
2021/03/11 21:45:49;;;;;;;3.38;1.98;;;4.20;99.90;;;;;;20854306;28;20094;-65
2021/03/11 21:55:52;;;;;;;3.50;1.83;;;4.30;99.90;;;;;;20889339;28;20106;-66
2021/03/11 22:05:54;;;;;;;5.65;2.30;;;4.40;99.90;;;;;;20868557;28;20052;-66
2021/03/11 22:15:56;;;;;;;4.43;2.80;;;4.50;99.90;;;;;;20868637;28;20064;-66
2021/03/11 22:25:58;;;;;;;4.47;2.20;;;4.50;99.90;;;;;;20885980;28;20045;-65
2021/03/11 22:36:00;;;;;;;5.65;3.00;;;4.60;99.90;;;;;;20886659;28;20499;-65
2021/03/11 22:46:02;;;;;;;5.70;3.33;;;4.60;99.90;;;;;;20885085;28;20029;-66
2021/03/11 22:56:05;;;;;;;3.90;2.50;;;4.70;99.90;;;;;;20868648;28;20063;-67
2021/03/11 23:06:07;;;;;;;4.88;3.00;;;4.70;99.90;;;;;;20867069;28;20103;-67
2021/03/11 23:16:09;;;;;;;5.85;3.35;;;4.70;99.90;;;;;;20866519;28;20041;-67
2021/03/11 23:26:12;;;;;;;4.72;2.88;;;4.70;99.90;;;;;;20867746;28;20045;-66
2021/03/11 23:36:14;;;;;;;3.20;2.13;;;4.70;99.90;;;;;;20893615;28;20094;-66
2021/03/11 23:46:16;;;;;;;4.53;2.58;;;4.90;99.90;;;;;;20898314;28;20044;-66
2021/03/11 23:56:18;;;;;;;6.90;3.60;;;4.70;99.90;;;;;;20880072;28;20037;-65
